sensor_id;sensor_type;location;lat;lon;timestamp;temperature;humidity
38436;DHT22;24220;48.168;14.024;2023-04-15T00:00:10;11.80;74.10
38436;DHT22;24220;48.168;14.024;2023-04-15T00:02:40;11.80;74.10
38436;DHT22;24220;48.168;14.024;2023-04-15T00:05:08;11.80;74.20
38436;DHT22;24220;48.168;14.024;2023-04-15T00:07:38;11.80;74.20
38436;DHT22;24220;48.168;14.024;2023-04-15T00:10:07;11.80;74.20
38436;DHT22;24220;48.168;14.024;2023-04-15T00:12:34;11.80;74.20
38436;DHT22;24220;48.168;14.024;2023-04-15T00:15:02;11.80;74.20
38436;DHT22;24220;48.168;14.024;2023-04-15T00:17:30;11.80;74.20
38436;DHT22;24220;48.168;14.024;2023-04-15T00:19:57;11.80;74.20
38436;DHT22;24220;48.168;14.024;2023-04-15T00:22:26;11.80;74.20
38436;DHT22;24220;48.168;14.024;2023-04-15T00:24:53;11.80;74.30
38436;DHT22;24220;48.168;14.024;2023-04-15T00:27:21;11.80;74.40
38436;DHT22;24220;48.168;14.024;2023-04-15T00:29:48;11.80;74.40
38436;DHT22;24220;48.168;14.024;2023-04-15T00:32:15;11.80;74.40
38436;DHT22;24220;48.168;14.024;2023-04-15T00:34:42;11.70;74.40
38436;DHT22;24220;48.168;14.024;2023-04-15T00:37:10;11.70;74.40
38436;DHT22;24220;48.168;14.024;2023-04-15T00:39:37;11.70;74.50
38436;DHT22;24220;48.168;14.024;2023-04-15T00:42:05;11.70;74.50
38436;DHT22;24220;48.168;14.024;2023-04-15T00:44:35;11.70;74.40
38436;DHT22;24220;48.168;14.024;2023-04-15T00:47:05;11.70;74.40
38436;DHT22;24220;48.168;14.024;2023-04-15T00:49:35;11.70;74.30
38436;DHT22;24220;48.168;14.024;2023-04-15T00:52:05;11.70;74.30
38436;DHT22;24220;48.168;14.024;2023-04-15T00:54:33;11.60;74.20
38436;DHT22;24220;48.168;14.024;2023-04-15T00:57:00;11.60;74.30
38436;DHT22;24220;48.168;14.024;2023-04-15T00:59:28;11.60;74.40
38436;DHT22;24220;48.168;14.024;2023-04-15T01:01:58;11.60;74.60
38436;DHT22;24220;48.168;14.024;2023-04-15T01:04:26;11.60;74.70
38436;DHT22;24220;48.168;14.024;2023-04-15T01:06:54;11.60;74.80
38436;DHT22;24220;48.168;14.024;2023-04-15T01:09:21;11.60;75.00
38436;DHT22;24220;48.168;14.024;2023-04-15T01:11:48;11.60;75.10
38436;DHT22;24220;48.168;14.024;2023-04-15T01:14:15;11.60;75.30
38436;DHT22;24220;48.168;14.024;2023-04-15T01:16:45;11.60;75.30
38436;DHT22;24220;48.168;14.024;2023-04-15T01:19:14;11.60;75.30
38436;DHT22;24220;48.168;14.024;2023-04-15T01:21:45;11.60;75.70
38436;DHT22;24220;48.168;14.024;2023-04-15T01:24:19;11.50;75.80
38436;DHT22;24220;48.168;14.024;2023-04-15T01:26:47;11.50;75.80
38436;DHT22;24220;48.168;14.024;2023-04-15T01:29:20;11.50;75.70
38436;DHT22;24220;48.168;14.024;2023-04-15T01:31:54;11.50;75.80
38436;DHT22;24220;48.168;14.024;2023-04-15T01:34:22;11.50;75.90
38436;DHT22;24220;48.168;14.024;2023-04-15T01:36:49;11.40;76.10
38436;DHT22;24220;48.168;14.024;2023-04-15T01:39:19;11.40;76.20
38436;DHT22;24220;48.168;14.024;2023-04-15T01:41:47;11.40;76.70
38436;DHT22;24220;48.168;14.024;2023-04-15T01:44:14;11.40;77.10
38436;DHT22;24220;48.168;14.024;2023-04-15T01:46:42;11.30;77.00
38436;DHT22;24220;48.168;14.024;2023-04-15T01:49:09;11.30;77.10
38436;DHT22;24220;48.168;14.024;2023-04-15T01:51:39;11.20;77.20
38436;DHT22;24220;48.168;14.024;2023-04-15T01:54:06;11.20;77.20
38436;DHT22;24220;48.168;14.024;2023-04-15T01:56:33;11.20;77.30
38436;DHT22;24220;48.168;14.024;2023-04-15T01:59:01;11.20;77.40
38436;DHT22;24220;48.168;14.024;2023-04-15T02:01:29;11.20;77.60
38436;DHT22;24220;48.168;14.024;2023-04-15T02:03:57;11.20;77.80
38436;DHT22;24220;48.168;14.024;2023-04-15T02:06:24;11.20;77.90
38436;DHT22;24220;48.168;14.024;2023-04-15T02:08:51;11.20;78.20
38436;DHT22;24220;48.168;14.024;2023-04-15T02:11:21;11.20;78.30
38436;DHT22;24220;48.168;14.024;2023-04-15T02:13:49;11.20;78.30
38436;DHT22;24220;48.168;14.024;2023-04-15T02:16:17;11.20;78.30
38436;DHT22;24220;48.168;14.024;2023-04-15T02:18:47;11.20;79.00
38436;DHT22;24220;48.168;14.024;2023-04-15T02:21:14;11.20;78.70
38436;DHT22;24220;48.168;14.024;2023-04-15T02:23:41;11.20;78.80
38436;DHT22;24220;48.168;14.024;2023-04-15T02:26:10;11.20;78.60
38436;DHT22;24220;48.168;14.024;2023-04-15T02:28:37;11.20;78.70
38436;DHT22;24220;48.168;14.024;2023-04-15T02:31:08;11.20;79.40
38436;DHT22;24220;48.168;14.024;2023-04-15T02:33:35;11.20;79.40
38436;DHT22;24220;48.168;14.024;2023-04-15T02:36:04;11.20;79.40
38436;DHT22;24220;48.168;14.024;2023-04-15T02:38:31;11.20;78.80
38436;DHT22;24220;48.168;14.024;2023-04-15T02:40:58;11.20;78.70
38436;DHT22;24220;48.168;14.024;2023-04-15T02:43:25;11.20;78.70
38436;DHT22;24220;48.168;14.024;2023-04-15T02:45:53;11.20;78.60
38436;DHT22;24220;48.168;14.024;2023-04-15T02:48:20;11.20;78.50
38436;DHT22;24220;48.168;14.024;2023-04-15T02:50:50;11.20;78.40
38436;DHT22;24220;48.168;14.024;2023-04-15T02:53:18;11.20;77.90
38436;DHT22;24220;48.168;14.024;2023-04-15T02:55:46;11.20;77.90
38436;DHT22;24220;48.168;14.024;2023-04-15T02:58:15;11.20;77.70
38436;DHT22;24220;48.168;14.024;2023-04-15T03:00:45;11.10;77.50
38436;DHT22;24220;48.168;14.024;2023-04-15T03:03:12;11.10;77.40
38436;DHT22;24220;48.168;14.024;2023-04-15T03:05:41;11.00;77.60
38436;DHT22;24220;48.168;14.024;2023-04-15T03:08:08;11.00;77.80
38436;DHT22;24220;48.168;14.024;2023-04-15T03:10:35;11.00;77.80
38436;DHT22;24220;48.168;14.024;2023-04-15T03:13:03;11.00;77.80
38436;DHT22;24220;48.168;14.024;2023-04-15T03:15:31;10.90;78.00
38436;DHT22;24220;48.168;14.024;2023-04-15T03:17:59;10.90;78.00
38436;DHT22;24220;48.168;14.024;2023-04-15T03:20:26;10.90;78.10
38436;DHT22;24220;48.168;14.024;2023-04-15T03:22:54;10.90;78.30
38436;DHT22;24220;48.168;14.024;2023-04-15T03:25:21;10.90;78.40
38436;DHT22;24220;48.168;14.024;2023-04-15T03:27:48;11.00;78.50
38436;DHT22;24220;48.168;14.024;2023-04-15T03:30:18;11.00;78.40
38436;DHT22;24220;48.168;14.024;2023-04-15T03:32:45;11.00;78.50
38436;DHT22;24220;48.168;14.024;2023-04-15T03:35:14;11.00;78.60
38436;DHT22;24220;48.168;14.024;2023-04-15T03:37:41;11.00;78.70
38436;DHT22;24220;48.168;14.024;2023-04-15T03:40:09;11.00;78.90
38436;DHT22;24220;48.168;14.024;2023-04-15T03:42:36;11.00;78.90
38436;DHT22;24220;48.168;14.024;2023-04-15T03:45:07;11.00;78.80
38436;DHT22;24220;48.168;14.024;2023-04-15T03:47:34;10.90;78.60
38436;DHT22;24220;48.168;14.024;2023-04-15T03:50:02;10.90;78.70
38436;DHT22;24220;48.168;14.024;2023-04-15T03:52:31;10.90;78.70
38436;DHT22;24220;48.168;14.024;2023-04-15T03:54:59;10.90;78.70
38436;DHT22;24220;48.168;14.024;2023-04-15T03:57:26;10.90;78.70
38436;DHT22;24220;48.168;14.024;2023-04-15T03:59:53;10.90;78.70
38436;DHT22;24220;48.168;14.024;2023-04-15T04:02:20;10.90;78.80
38436;DHT22;24220;48.168;14.024;2023-04-15T04:04:49;10.80;78.80
38436;DHT22;24220;48.168;14.024;2023-04-15T04:07:19;10.90;78.80
38436;DHT22;24220;48.168;14.024;2023-04-15T04:09:49;10.80;78.80
38436;DHT22;24220;48.168;14.024;2023-04-15T04:12:16;10.80;78.90
38436;DHT22;24220;48.168;14.024;2023-04-15T04:14:46;10.80;79.00
38436;DHT22;24220;48.168;14.024;2023-04-15T04:17:16;10.90;79.10
38436;DHT22;24220;48.168;14.024;2023-04-15T04:19:46;10.80;79.20
38436;DHT22;24220;48.168;14.024;2023-04-15T04:22:15;10.80;79.50
38436;DHT22;24220;48.168;14.024;2023-04-15T04:24:45;10.80;79.70
38436;DHT22;24220;48.168;14.024;2023-04-15T04:27:14;10.70;79.10
38436;DHT22;24220;48.168;14.024;2023-04-15T04:29:44;10.70;79.10
38436;DHT22;24220;48.168;14.024;2023-04-15T04:32:16;10.70;78.90
38436;DHT22;24220;48.168;14.024;2023-04-15T04:34:43;10.70;78.90
38436;DHT22;24220;48.168;14.024;2023-04-15T04:37:10;10.70;78.90
38436;DHT22;24220;48.168;14.024;2023-04-15T04:39:37;10.70;78.90
38436;DHT22;24220;48.168;14.024;2023-04-15T04:42:05;10.70;78.80
38436;DHT22;24220;48.168;14.024;2023-04-15T04:44:37;10.60;78.70
38436;DHT22;24220;48.168;14.024;2023-04-15T04:47:07;10.60;78.40
38436;DHT22;24220;48.168;14.024;2023-04-15T04:49:34;10.60;78.50
38436;DHT22;24220;48.168;14.024;2023-04-15T04:52:04;10.60;78.50
38436;DHT22;24220;48.168;14.024;2023-04-15T04:54:32;10.50;78.50
38436;DHT22;24220;48.168;14.024;2023-04-15T04:56:59;10.60;78.70
38436;DHT22;24220;48.168;14.024;2023-04-15T04:59:27;10.50;78.60
38436;DHT22;24220;48.168;14.024;2023-04-15T05:01:55;10.60;78.80
38436;DHT22;24220;48.168;14.024;2023-04-15T05:04:22;10.60;78.80
38436;DHT22;24220;48.168;14.024;2023-04-15T05:06:49;10.60;78.80
38436;DHT22;24220;48.168;14.024;2023-04-15T05:09:17;10.60;78.80
38436;DHT22;24220;48.168;14.024;2023-04-15T05:11:45;10.60;78.80
38436;DHT22;24220;48.168;14.024;2023-04-15T05:14:15;10.60;78.90
38436;DHT22;24220;48.168;14.024;2023-04-15T05:16:42;10.70;79.00
38436;DHT22;24220;48.168;14.024;2023-04-15T05:19:12;10.70;78.80
38436;DHT22;24220;48.168;14.024;2023-04-15T05:21:39;10.70;78.80
38436;DHT22;24220;48.168;14.024;2023-04-15T05:24:09;10.80;78.90
38436;DHT22;24220;48.168;14.024;2023-04-15T05:26:39;10.70;78.70
38436;DHT22;24220;48.168;14.024;2023-04-15T05:29:08;10.80;78.60
38436;DHT22;24220;48.168;14.024;2023-04-15T05:31:36;10.80;78.50
38436;DHT22;24220;48.168;14.024;2023-04-15T05:34:03;10.80;78.40
38436;DHT22;24220;48.168;14.024;2023-04-15T05:36:33;10.80;78.10
38436;DHT22;24220;48.168;14.024;2023-04-15T05:39:00;10.80;78.00
38436;DHT22;24220;48.168;14.024;2023-04-15T05:41:28;10.80;78.00
38436;DHT22;24220;48.168;14.024;2023-04-15T05:43:58;10.90;78.10
38436;DHT22;24220;48.168;14.024;2023-04-15T05:46:30;10.90;77.80
38436;DHT22;24220;48.168;14.024;2023-04-15T05:49:00;10.90;77.70
38436;DHT22;24220;48.168;14.024;2023-04-15T05:51:30;10.90;77.50
38436;DHT22;24220;48.168;14.024;2023-04-15T05:54:00;10.90;77.50
38436;DHT22;24220;48.168;14.024;2023-04-15T05:56:27;10.90;78.00
38436;DHT22;24220;48.168;14.024;2023-04-15T05:58:55;10.90;77.30
38436;DHT22;24220;48.168;14.024;2023-04-15T06:01:22;10.90;77.40
38436;DHT22;24220;48.168;14.024;2023-04-15T06:03:52;10.90;77.40
38436;DHT22;24220;48.168;14.024;2023-04-15T06:06:20;11.00;77.40
38436;DHT22;24220;48.168;14.024;2023-04-15T06:08:47;11.00;77.40
38436;DHT22;24220;48.168;14.024;2023-04-15T06:11:14;11.00;77.40
38436;DHT22;24220;48.168;14.024;2023-04-15T06:13:42;11.00;77.40
38436;DHT22;24220;48.168;14.024;2023-04-15T06:16:12;11.10;77.20
38436;DHT22;24220;48.168;14.024;2023-04-15T06:18:42;11.10;77.20
38436;DHT22;24220;48.168;14.024;2023-04-15T06:21:09;11.10;76.90
38436;DHT22;24220;48.168;14.024;2023-04-15T06:23:36;11.20;76.90
38436;DHT22;24220;48.168;14.024;2023-04-15T06:26:04;11.20;76.80
38436;DHT22;24220;48.168;14.024;2023-04-15T06:28:31;11.20;76.70
38436;DHT22;24220;48.168;14.024;2023-04-15T06:30:58;11.20;76.30
38436;DHT22;24220;48.168;14.024;2023-04-15T06:33:28;11.20;76.00
38436;DHT22;24220;48.168;14.024;2023-04-15T06:35:55;11.30;75.90
38436;DHT22;24220;48.168;14.024;2023-04-15T06:38:25;11.20;75.70
38436;DHT22;24220;48.168;14.024;2023-04-15T06:40:53;11.30;75.80
38436;DHT22;24220;48.168;14.024;2023-04-15T06:43:22;11.30;75.70
38436;DHT22;24220;48.168;14.024;2023-04-15T06:45:52;11.30;75.60
38436;DHT22;24220;48.168;14.024;2023-04-15T06:48:19;11.20;75.50
38436;DHT22;24220;48.168;14.024;2023-04-15T06:50:48;11.20;75.50
38436;DHT22;24220;48.168;14.024;2023-04-15T06:53:15;11.30;75.50
38436;DHT22;24220;48.168;14.024;2023-04-15T06:55:43;11.30;75.50
38436;DHT22;24220;48.168;14.024;2023-04-15T06:58:10;11.20;75.30
38436;DHT22;24220;48.168;14.024;2023-04-15T07:00:38;11.30;75.20
38436;DHT22;24220;48.168;14.024;2023-04-15T07:03:08;11.20;75.20
38436;DHT22;24220;48.168;14.024;2023-04-15T07:05:41;11.20;75.20
38436;DHT22;24220;48.168;14.024;2023-04-15T07:08:08;11.30;75.30
38436;DHT22;24220;48.168;14.024;2023-04-15T07:10:35;11.30;75.40
38436;DHT22;24220;48.168;14.024;2023-04-15T07:13:03;11.30;75.20
38436;DHT22;24220;48.168;14.024;2023-04-15T07:15:31;11.30;75.10
38436;DHT22;24220;48.168;14.024;2023-04-15T07:17:59;11.30;74.90
38436;DHT22;24220;48.168;14.024;2023-04-15T07:20:26;11.30;74.80
38436;DHT22;24220;48.168;14.024;2023-04-15T07:22:56;11.30;74.60
38436;DHT22;24220;48.168;14.024;2023-04-15T07:25:24;11.30;74.70
38436;DHT22;24220;48.168;14.024;2023-04-15T07:27:54;11.30;74.60
38436;DHT22;24220;48.168;14.024;2023-04-15T07:30:21;11.20;74.50
38436;DHT22;24220;48.168;14.024;2023-04-15T07:32:49;11.30;74.60
38436;DHT22;24220;48.168;14.024;2023-04-15T07:35:18;11.30;74.40
38436;DHT22;24220;48.168;14.024;2023-04-15T07:37:50;11.30;75.30
38436;DHT22;24220;48.168;14.024;2023-04-15T07:40:18;11.30;74.70
38436;DHT22;24220;48.168;14.024;2023-04-15T07:42:45;11.30;74.90
38436;DHT22;24220;48.168;14.024;2023-04-15T07:45:15;11.30;75.00
38436;DHT22;24220;48.168;14.024;2023-04-15T07:47:45;11.30;75.00
38436;DHT22;24220;48.168;14.024;2023-04-15T07:50:13;11.30;75.10
38436;DHT22;24220;48.168;14.024;2023-04-15T07:52:43;11.30;75.10
38436;DHT22;24220;48.168;14.024;2023-04-15T07:55:16;11.30;74.90
38436;DHT22;24220;48.168;14.024;2023-04-15T07:57:45;11.30;74.80
38436;DHT22;24220;48.168;14.024;2023-04-15T08:00:13;11.40;74.80
38436;DHT22;24220;48.168;14.024;2023-04-15T08:02:42;11.30;74.70
38436;DHT22;24220;48.168;14.024;2023-04-15T08:05:13;11.40;74.90
38436;DHT22;24220;48.168;14.024;2023-04-15T08:07:41;11.40;74.90
38436;DHT22;24220;48.168;14.024;2023-04-15T08:10:08;11.40;75.00
38436;DHT22;24220;48.168;14.024;2023-04-15T08:12:36;11.40;75.00
38436;DHT22;24220;48.168;14.024;2023-04-15T08:15:04;11.40;74.90
38436;DHT22;24220;48.168;14.024;2023-04-15T08:17:31;11.40;74.80
38436;DHT22;24220;48.168;14.024;2023-04-15T08:19:59;11.40;74.80
38436;DHT22;24220;48.168;14.024;2023-04-15T08:22:27;11.50;74.70
38436;DHT22;24220;48.168;14.024;2023-04-15T08:24:56;11.50;74.70
38436;DHT22;24220;48.168;14.024;2023-04-15T08:27:24;11.50;74.70
38436;DHT22;24220;48.168;14.024;2023-04-15T08:29:51;11.50;74.50
38436;DHT22;24220;48.168;14.024;2023-04-15T08:32:21;11.50;74.50
38436;DHT22;24220;48.168;14.024;2023-04-15T08:34:48;11.50;74.30
38436;DHT22;24220;48.168;14.024;2023-04-15T08:37:19;11.50;74.10
38436;DHT22;24220;48.168;14.024;2023-04-15T08:39:47;11.50;74.10
38436;DHT22;24220;48.168;14.024;2023-04-15T08:42:23;11.50;74.20
38436;DHT22;24220;48.168;14.024;2023-04-15T08:44:52;11.50;73.90
38436;DHT22;24220;48.168;14.024;2023-04-15T08:47:25;11.50;74.00
38436;DHT22;24220;48.168;14.024;2023-04-15T08:49:57;11.50;74.00
38436;DHT22;24220;48.168;14.024;2023-04-15T08:52:25;11.50;73.90
38436;DHT22;24220;48.168;14.024;2023-04-15T08:54:59;11.50;73.90
38436;DHT22;24220;48.168;14.024;2023-04-15T08:57:32;11.50;73.90
38436;DHT22;24220;48.168;14.024;2023-04-15T09:00:02;11.50;73.80
38436;DHT22;24220;48.168;14.024;2023-04-15T09:02:31;11.50;73.90
38436;DHT22;24220;48.168;14.024;2023-04-15T09:04:59;11.50;74.00
38436;DHT22;24220;48.168;14.024;2023-04-15T09:07:27;11.50;74.10
38436;DHT22;24220;48.168;14.024;2023-04-15T09:09:54;11.50;74.00
38436;DHT22;24220;48.168;14.024;2023-04-15T09:12:21;11.50;74.10
38436;DHT22;24220;48.168;14.024;2023-04-15T09:14:51;11.50;74.10
38436;DHT22;24220;48.168;14.024;2023-04-15T09:17:19;11.50;74.00
38436;DHT22;24220;48.168;14.024;2023-04-15T09:19:47;11.50;74.00
38436;DHT22;24220;48.168;14.024;2023-04-15T09:22:15;11.50;73.90
38436;DHT22;24220;48.168;14.024;2023-04-15T09:24:42;11.50;73.90
38436;DHT22;24220;48.168;14.024;2023-04-15T09:27:10;11.50;74.10
38436;DHT22;24220;48.168;14.024;2023-04-15T09:29:37;11.50;74.20
38436;DHT22;24220;48.168;14.024;2023-04-15T09:32:14;11.50;74.40
38436;DHT22;24220;48.168;14.024;2023-04-15T09:34:44;11.60;74.30
38436;DHT22;24220;48.168;14.024;2023-04-15T09:37:12;11.60;74.20
38436;DHT22;24220;48.168;14.024;2023-04-15T09:39:58;11.60;74.20
38436;DHT22;24220;48.168;14.024;2023-04-15T09:42:25;11.60;74.30
38436;DHT22;24220;48.168;14.024;2023-04-15T09:44:55;11.60;74.30
38436;DHT22;24220;48.168;14.024;2023-04-15T09:47:34;11.60;74.30
38436;DHT22;24220;48.168;14.024;2023-04-15T09:50:01;11.70;74.20
38436;DHT22;24220;48.168;14.024;2023-04-15T09:52:31;11.70;74.20
38436;DHT22;24220;48.168;14.024;2023-04-15T09:54:59;11.70;74.30
38436;DHT22;24220;48.168;14.024;2023-04-15T09:57:36;11.70;74.40
38436;DHT22;24220;48.168;14.024;2023-04-15T10:00:05;11.70;74.40
38436;DHT22;24220;48.168;14.024;2023-04-15T10:02:35;11.80;74.30
38436;DHT22;24220;48.168;14.024;2023-04-15T10:05:03;11.80;74.20
38436;DHT22;24220;48.168;14.024;2023-04-15T10:07:32;11.80;74.30
38436;DHT22;24220;48.168;14.024;2023-04-15T10:10:02;11.80;74.30
38436;DHT22;24220;48.168;14.024;2023-04-15T10:12:31;11.80;74.30
38436;DHT22;24220;48.168;14.024;2023-04-15T10:15:03;11.80;74.30
38436;DHT22;24220;48.168;14.024;2023-04-15T10:17:34;11.80;74.10
38436;DHT22;24220;48.168;14.024;2023-04-15T10:20:04;11.90;74.20
38436;DHT22;24220;48.168;14.024;2023-04-15T10:22:37;11.90;74.10
38436;DHT22;24220;48.168;14.024;2023-04-15T10:25:07;11.90;74.10
38436;DHT22;24220;48.168;14.024;2023-04-15T10:27:39;11.90;74.20
38436;DHT22;24220;48.168;14.024;2023-04-15T10:30:08;11.90;73.80
38436;DHT22;24220;48.168;14.024;2023-04-15T10:32:40;11.90;73.90
38436;DHT22;24220;48.168;14.024;2023-04-15T10:35:11;11.90;74.00
38436;DHT22;24220;48.168;14.024;2023-04-15T10:37:39;11.90;74.00
38436;DHT22;24220;48.168;14.024;2023-04-15T10:40:26;11.90;74.00
38436;DHT22;24220;48.168;14.024;2023-04-15T10:43:00;11.80;74.10
38436;DHT22;24220;48.168;14.024;2023-04-15T10:45:32;11.80;74.10
38436;DHT22;24220;48.168;14.024;2023-04-15T10:48:05;11.80;74.30
38436;DHT22;24220;48.168;14.024;2023-04-15T10:50:33;11.80;74.40
38436;DHT22;24220;48.168;14.024;2023-04-15T10:53:05;11.80;74.50
38436;DHT22;24220;48.168;14.024;2023-04-15T10:55:36;11.90;74.60
38436;DHT22;24220;48.168;14.024;2023-04-15T10:58:08;11.90;74.60
38436;DHT22;24220;48.168;14.024;2023-04-15T11:00:36;11.90;74.60
38436;DHT22;24220;48.168;14.024;2023-04-15T11:03:08;11.90;74.60
38436;DHT22;24220;48.168;14.024;2023-04-15T11:05:48;11.90;74.60
38436;DHT22;24220;48.168;14.024;2023-04-15T11:08:18;11.90;74.40
38436;DHT22;24220;48.168;14.024;2023-04-15T11:10:54;12.00;74.50
38436;DHT22;24220;48.168;14.024;2023-04-15T11:13:22;12.00;74.70
38436;DHT22;24220;48.168;14.024;2023-04-15T11:15:55;12.00;74.70
38436;DHT22;24220;48.168;14.024;2023-04-15T11:18:27;12.00;74.60
38436;DHT22;24220;48.168;14.024;2023-04-15T11:20:57;12.00;74.70
38436;DHT22;24220;48.168;14.024;2023-04-15T11:26:04;12.00;74.70
38436;DHT22;24220;48.168;14.024;2023-04-15T11:28:38;12.00;74.60
38436;DHT22;24220;48.168;14.024;2023-04-15T11:31:14;12.00;74.50
38436;DHT22;24220;48.168;14.024;2023-04-15T11:33:59;12.00;74.50
38436;DHT22;24220;48.168;14.024;2023-04-15T11:36:30;12.10;74.70
38436;DHT22;24220;48.168;14.024;2023-04-15T11:38:59;12.10;74.60
38436;DHT22;24220;48.168;14.024;2023-04-15T11:41:27;12.10;74.70
38436;DHT22;24220;48.168;14.024;2023-04-15T11:43:54;12.10;74.80
38436;DHT22;24220;48.168;14.024;2023-04-15T11:46:28;12.10;74.80
38436;DHT22;24220;48.168;14.024;2023-04-15T11:48:56;12.10;75.00
38436;DHT22;24220;48.168;14.024;2023-04-15T11:51:24;12.20;74.90
38436;DHT22;24220;48.168;14.024;2023-04-15T11:53:51;12.20;74.90
38436;DHT22;24220;48.168;14.024;2023-04-15T11:56:23;12.20;74.80
38436;DHT22;24220;48.168;14.024;2023-04-15T11:58:55;12.20;74.70
38436;DHT22;24220;48.168;14.024;2023-04-15T12:01:36;12.20;74.70
38436;DHT22;24220;48.168;14.024;2023-04-15T12:04:12;12.30;74.70
38436;DHT22;24220;48.168;14.024;2023-04-15T12:06:40;12.30;74.40
38436;DHT22;24220;48.168;14.024;2023-04-15T12:09:17;12.30;74.40
38436;DHT22;24220;48.168;14.024;2023-04-15T12:11:50;12.30;74.40
38436;DHT22;24220;48.168;14.024;2023-04-15T12:14:28;12.30;74.50
38436;DHT22;24220;48.168;14.024;2023-04-15T12:19:31;12.30;74.60
38436;DHT22;24220;48.168;14.024;2023-04-15T12:24:32;12.30;74.40
38436;DHT22;24220;48.168;14.024;2023-04-15T12:27:10;12.30;74.40
38436;DHT22;24220;48.168;14.024;2023-04-15T12:29:39;12.30;74.60
38436;DHT22;24220;48.168;14.024;2023-04-15T12:32:13;12.30;74.60
38436;DHT22;24220;48.168;14.024;2023-04-15T12:37:16;12.40;74.60
38436;DHT22;24220;48.168;14.024;2023-04-15T12:39:46;12.30;74.50
38436;DHT22;24220;48.168;14.024;2023-04-15T12:42:18;12.30;74.40
38436;DHT22;24220;48.168;14.024;2023-04-15T12:44:45;12.30;74.40
38436;DHT22;24220;48.168;14.024;2023-04-15T12:47:15;12.40;74.50
38436;DHT22;24220;48.168;14.024;2023-04-15T12:49:43;12.30;74.40
38436;DHT22;24220;48.168;14.024;2023-04-15T12:52:10;12.30;74.60
38436;DHT22;24220;48.168;14.024;2023-04-15T12:54:38;12.30;74.70
38436;DHT22;24220;48.168;14.024;2023-04-15T12:57:07;12.30;74.80
38436;DHT22;24220;48.168;14.024;2023-04-15T12:59:35;12.40;74.90
38436;DHT22;24220;48.168;14.024;2023-04-15T13:02:03;12.40;74.80
38436;DHT22;24220;48.168;14.024;2023-04-15T13:04:31;12.40;74.90
38436;DHT22;24220;48.168;14.024;2023-04-15T13:06:59;12.40;75.00
38436;DHT22;24220;48.168;14.024;2023-04-15T13:09:29;12.40;74.70
38436;DHT22;24220;48.168;14.024;2023-04-15T13:11:57;12.40;74.60
38436;DHT22;24220;48.168;14.024;2023-04-15T13:14:24;12.40;74.60
38436;DHT22;24220;48.168;14.024;2023-04-15T13:16:55;12.40;74.70
38436;DHT22;24220;48.168;14.024;2023-04-15T13:19:27;12.40;74.70
38436;DHT22;24220;48.168;14.024;2023-04-15T13:21:55;12.50;74.80
38436;DHT22;24220;48.168;14.024;2023-04-15T13:24:22;12.50;74.70
38436;DHT22;24220;48.168;14.024;2023-04-15T13:26:49;12.40;74.40
38436;DHT22;24220;48.168;14.024;2023-04-15T13:29:19;12.50;74.50
38436;DHT22;24220;48.168;14.024;2023-04-15T13:31:46;12.50;74.30
38436;DHT22;24220;48.168;14.024;2023-04-15T13:34:14;12.50;74.30
38436;DHT22;24220;48.168;14.024;2023-04-15T13:36:41;12.50;74.30
38436;DHT22;24220;48.168;14.024;2023-04-15T13:39:08;12.50;74.30
38436;DHT22;24220;48.168;14.024;2023-04-15T13:41:39;12.50;74.30
38436;DHT22;24220;48.168;14.024;2023-04-15T13:44:08;12.50;74.50
38436;DHT22;24220;48.168;14.024;2023-04-15T13:46:38;12.50;74.60
38436;DHT22;24220;48.168;14.024;2023-04-15T13:49:07;12.60;74.70
38436;DHT22;24220;48.168;14.024;2023-04-15T13:51:37;12.60;75.20
38436;DHT22;24220;48.168;14.024;2023-04-15T13:54:08;12.60;74.40
38436;DHT22;24220;48.168;14.024;2023-04-15T13:56:36;12.60;74.20
38436;DHT22;24220;48.168;14.024;2023-04-15T13:59:05;12.60;74.20
38436;DHT22;24220;48.168;14.024;2023-04-15T14:01:34;12.60;74.00
38436;DHT22;24220;48.168;14.024;2023-04-15T14:04:05;12.60;73.80
38436;DHT22;24220;48.168;14.024;2023-04-15T14:06:33;12.60;73.60
38436;DHT22;24220;48.168;14.024;2023-04-15T14:09:00;12.60;73.60
38436;DHT22;24220;48.168;14.024;2023-04-15T14:11:28;12.60;73.80
38436;DHT22;24220;48.168;14.024;2023-04-15T14:13:56;12.60;73.70
38436;DHT22;24220;48.168;14.024;2023-04-15T14:16:26;12.60;73.70
38436;DHT22;24220;48.168;14.024;2023-04-15T14:18:55;12.60;73.80
38436;DHT22;24220;48.168;14.024;2023-04-15T14:21:26;12.60;73.70
38436;DHT22;24220;48.168;14.024;2023-04-15T14:24:00;12.60;73.60
38436;DHT22;24220;48.168;14.024;2023-04-15T14:26:28;12.60;73.70
38436;DHT22;24220;48.168;14.024;2023-04-15T14:28:55;12.60;73.70
38436;DHT22;24220;48.168;14.024;2023-04-15T14:31:22;12.60;73.70
38436;DHT22;24220;48.168;14.024;2023-04-15T14:33:50;12.60;73.50
38436;DHT22;24220;48.168;14.024;2023-04-15T14:36:17;12.60;73.60
38436;DHT22;24220;48.168;14.024;2023-04-15T14:38:45;12.60;73.60
38436;DHT22;24220;48.168;14.024;2023-04-15T14:41:17;12.60;73.60
38436;DHT22;24220;48.168;14.024;2023-04-15T14:43:44;12.60;73.60
38436;DHT22;24220;48.168;14.024;2023-04-15T14:46:12;12.50;73.40
38436;DHT22;24220;48.168;14.024;2023-04-15T14:48:41;12.50;73.30
38436;DHT22;24220;48.168;14.024;2023-04-15T14:51:08;12.60;73.50
38436;DHT22;24220;48.168;14.024;2023-04-15T14:53:39;12.60;73.60
38436;DHT22;24220;48.168;14.024;2023-04-15T14:56:09;12.60;73.70
38436;DHT22;24220;48.168;14.024;2023-04-15T14:58:37;12.60;73.60
38436;DHT22;24220;48.168;14.024;2023-04-15T15:01:05;12.60;73.70
38436;DHT22;24220;48.168;14.024;2023-04-15T15:03:32;12.60;73.70
38436;DHT22;24220;48.168;14.024;2023-04-15T15:06:02;12.60;73.90
38436;DHT22;24220;48.168;14.024;2023-04-15T15:08:32;12.60;73.90
38436;DHT22;24220;48.168;14.024;2023-04-15T15:10:59;12.50;73.80
38436;DHT22;24220;48.168;14.024;2023-04-15T15:13:29;12.60;73.90
38436;DHT22;24220;48.168;14.024;2023-04-15T15:15:57;12.50;73.90
38436;DHT22;24220;48.168;14.024;2023-04-15T15:18:24;12.50;73.80
38436;DHT22;24220;48.168;14.024;2023-04-15T15:20:52;12.60;74.00
38436;DHT22;24220;48.168;14.024;2023-04-15T15:23:19;12.50;73.90
38436;DHT22;24220;48.168;14.024;2023-04-15T15:25:46;12.50;73.90
38436;DHT22;24220;48.168;14.024;2023-04-15T15:28:18;12.60;74.00
38436;DHT22;24220;48.168;14.024;2023-04-15T15:30:47;12.60;74.10
38436;DHT22;24220;48.168;14.024;2023-04-15T15:33:15;12.50;73.90
38436;DHT22;24220;48.168;14.024;2023-04-15T15:35:43;12.50;73.90